Waterloo, Ohio
Current Conditions -  °F | °C
As of 8:55 AM on Monday 24 Nov 2014 (Local Time) from KDWU Reporting Station
Overcast Overcast  
Wind Chill: 64°   Ceiling: 7000
Heat Index: 64°   Visibility: 10mi
Dew Point: 48°   Wind: 15mph
Humidity: 56%   Direction: 240°WSW
Pressure: 29.45"   Gusts: 22mph
Location:  38.7°N, 82.47°W
Report Text: KDWU 241355Z AUTO 24013G19KT 10SM SCT065 OVC070 18/09 A2945 RMK AO1
Loading
Personal Weather Stations






























Interactive Weather Map New forecast layout! Learn more

10-Day Weather Forecast

Advertisements
Track Severe Weather on mobile